Time;durP1;ratioP1;P1;durP2;ratioP2;P2;SDS_P1;SDS_P2;PMS_P1;PMS_P2;Temp;Humidity;BMP_temperature;BMP_pressure;BME280_temperature;BME280_humidity;BME280_pressure;Samples;Min_cycle;Max_cycle;Signal;HPM_P1;HPM_P2
2021/11/16 00:01:26;;;;;;;16.65;7.30;;;19.90;42.50;;;;;;4897881;29;20032;-61
2021/11/16 00:03:55;;;;;;;13.00;7.43;;;19.90;42.50;;;;;;4898153;29;20111;-61
2021/11/16 00:06:21;;;;;;;11.68;6.95;;;19.90;42.50;;;;;;4898052;29;20032;-61
2021/11/16 00:08:48;;;;;;;12.25;7.53;;;19.90;42.60;;;;;;4898247;29;20115;-61
2021/11/16 00:11:14;;;;;;;10.82;6.55;;;19.90;42.60;;;;;;4897878;29;20044;-61
2021/11/16 00:13:40;;;;;;;12.25;6.97;;;19.90;42.50;;;;;;4898186;29;20032;-61
2021/11/16 00:16:05;;;;;;;12.68;7.15;;;19.90;42.50;;;;;;4898049;29;20433;-61
2021/11/16 00:18:31;;;;;;;12.57;7.72;;;19.90;42.50;;;;;;4896531;29;20480;-61
2021/11/16 00:20:59;;;;;;;12.15;7.03;;;19.90;42.50;;;;;;4898064;29;20436;-60
2021/11/16 00:23:32;;;;;;;11.80;7.35;;;19.90;42.50;;;;;;4897645;29;20049;-60
2021/11/16 00:26:00;;;;;;;13.23;7.85;;;19.90;42.50;;;;;;4897801;29;20032;-61
2021/11/16 00:28:25;;;;;;;11.93;7.72;;;19.90;42.40;;;;;;4897705;29;20029;-61
2021/11/16 00:30:53;;;;;;;14.45;8.25;;;19.90;42.40;;;;;;4897954;29;20032;-61
2021/11/16 00:33:21;;;;;;;12.05;7.10;;;19.90;42.40;;;;;;4897825;29;20268;-60
2021/11/16 00:35:47;;;;;;;12.18;7.75;;;19.90;42.40;;;;;;4897748;29;20096;-62
2021/11/16 00:38:14;;;;;;;12.07;7.22;;;19.80;42.40;;;;;;4900469;29;20040;-62
2021/11/16 00:40:41;;;;;;;13.25;7.88;;;19.90;42.40;;;;;;4901394;29;20112;-61
2021/11/16 00:43:08;;;;;;;12.75;7.55;;;19.90;42.50;;;;;;4901510;29;20028;-61
2021/11/16 00:45:39;;;;;;;12.57;7.03;;;19.90;42.50;;;;;;4901580;29;20037;-61
2021/11/16 00:48:06;;;;;;;12.88;7.88;;;19.90;42.50;;;;;;4901399;29;20108;-61
2021/11/16 00:50:32;;;;;;;13.65;7.40;;;19.90;42.40;;;;;;4901282;29;20043;-61
2021/11/16 00:52:58;;;;;;;14.05;8.07;;;19.90;42.50;;;;;;4899922;29;20024;-61
2021/11/16 00:55:24;;;;;;;12.98;7.50;;;19.90;42.50;;;;;;4901398;29;20146;-61
2021/11/16 00:57:50;;;;;;;13.30;8.23;;;19.90;42.50;;;;;;4901351;29;20103;-61
2021/11/16 01:00:16;;;;;;;14.48;8.20;;;19.90;42.40;;;;;;4901119;29;20111;-60
2021/11/16 01:02:42;;;;;;;13.77;8.38;;;19.80;42.50;;;;;;4901078;29;20033;-61
2021/11/16 01:05:12;;;;;;;14.18;8.07;;;19.80;42.50;;;;;;4901160;29;20364;-62
2021/11/16 01:07:38;;;;;;;13.65;7.95;;;19.90;42.40;;;;;;4900863;29;20035;-61
2021/11/16 01:10:05;;;;;;;13.80;7.97;;;19.80;42.40;;;;;;4900779;29;20029;-60
2021/11/16 01:12:30;;;;;;;11.95;7.63;;;19.90;42.40;;;;;;4900811;29;20507;-61
2021/11/16 01:14:57;;;;;;;13.75;8.68;;;19.90;42.40;;;;;;4900924;29;20033;-61
2021/11/16 01:17:23;;;;;;;13.90;8.65;;;19.80;42.40;;;;;;4899504;29;20039;-61
2021/11/16 01:19:49;;;;;;;14.43;8.45;;;19.80;42.40;;;;;;4900792;29;20041;-61
2021/11/16 01:22:16;;;;;;;13.82;8.43;;;19.80;42.40;;;;;;4901043;29;20474;-61
2021/11/16 01:24:42;;;;;;;13.27;7.82;;;19.80;42.40;;;;;;4899195;29;20053;-61
2021/11/16 01:27:10;;;;;;;12.60;7.60;;;19.80;42.40;;;;;;4900779;29;20025;-61
2021/11/16 01:29:38;;;;;;;13.73;8.02;;;19.80;42.40;;;;;;4899292;29;20029;-61
2021/11/16 01:32:06;;;;;;;12.13;7.50;;;19.80;42.40;;;;;;4900474;29;20499;-61
2021/11/16 01:34:33;;;;;;;12.93;8.07;;;19.80;42.50;;;;;;4900482;29;20385;-61
2021/11/16 01:36:59;;;;;;;14.68;9.00;;;19.80;42.50;;;;;;4899166;29;20080;-62
2021/11/16 01:39:27;;;;;;;13.55;7.85;;;19.80;42.30;;;;;;4900569;29;20033;-61
2021/11/16 01:41:53;;;;;;;13.57;8.25;;;19.80;42.40;;;;;;4899004;29;20095;-61
2021/11/16 01:44:20;;;;;;;14.30;8.20;;;19.80;42.40;;;;;;4899030;29;20045;-62
2021/11/16 01:46:45;;;;;;;14.05;8.43;;;19.80;42.40;;;;;;4900416;29;20025;-60
2021/11/16 01:49:12;;;;;;;13.63;8.50;;;19.80;42.40;;;;;;4899157;29;20377;-61
2021/11/16 01:51:38;;;;;;;13.82;8.30;;;19.80;42.40;;;;;;4900395;29;20085;-61
2021/11/16 01:54:05;;;;;;;14.70;8.30;;;19.80;42.30;;;;;;4900276;29;20029;-64
2021/11/16 01:56:40;;;;;;;14.20;8.65;;;19.80;42.40;;;;;;4900343;29;20044;-62
2021/11/16 01:59:06;;;;;;;14.18;8.50;;;19.80;42.30;;;;;;4900271;29;20035;-62
2021/11/16 02:01:33;;;;;;;13.95;8.13;;;19.80;42.30;;;;;;4900210;29;20032;-61
2021/11/16 02:04:00;;;;;;;12.55;8.13;;;19.80;42.40;;;;;;4899880;29;20032;-61
2021/11/16 02:06:31;;;;;;;15.13;9.13;;;19.80;42.30;;;;;;4899812;29;20037;-61
2021/11/16 02:08:59;;;;;;;14.10;8.20;;;19.80;42.30;;;;;;4900089;29;20552;-61
2021/11/16 02:11:25;;;;;;;12.68;8.82;;;19.70;42.20;;;;;;4899751;29;20043;-61
2021/11/16 02:13:52;;;;;;;13.68;7.90;;;19.80;42.30;;;;;;4899957;29;20039;-60
2021/11/16 02:16:18;;;;;;;14.63;8.38;;;19.80;42.30;;;;;;4898709;29;20064;-61
2021/11/16 02:18:44;;;;;;;13.52;8.77;;;19.80;42.30;;;;;;4899883;29;20387;-61
2021/11/16 02:21:10;;;;;;;14.13;8.75;;;19.70;42.30;;;;;;4898355;29;20020;-61
2021/11/16 02:23:38;;;;;;;14.40;8.25;;;19.70;42.30;;;;;;4898000;29;20144;-61
2021/11/16 02:26:05;;;;;;;13.75;8.80;;;19.80;42.30;;;;;;4899454;29;20029;-61
2021/11/16 02:28:30;;;;;;;13.43;8.15;;;19.80;42.30;;;;;;4899452;29;20031;-62
2021/11/16 02:30:56;;;;;;;14.30;8.50;;;19.80;42.30;;;;;;4899625;29;20111;-61
2021/11/16 02:33:22;;;;;;;14.13;8.63;;;19.80;42.30;;;;;;4899587;29;20578;-61
2021/11/16 02:35:49;;;;;;;12.80;8.02;;;19.80;42.30;;;;;;4898117;29;20445;-61
2021/11/16 02:38:15;;;;;;;13.85;8.25;;;19.70;42.30;;;;;;4899328;29;20052;-61
2021/11/16 02:40:41;;;;;;;14.85;8.57;;;19.70;42.30;;;;;;4899226;29;20067;-61
2021/11/16 02:43:07;;;;;;;13.38;8.35;;;19.70;42.30;;;;;;4899469;29;20027;-61
2021/11/16 02:45:33;;;;;;;13.75;8.35;;;19.80;42.40;;;;;;4897894;29;20043;-60
2021/11/16 02:47:58;;;;;;;14.10;7.95;;;19.70;42.30;;;;;;4899086;29;20383;-61
2021/11/16 02:50:24;;;;;;;13.43;8.18;;;19.70;42.30;;;;;;4899219;29;20033;-61
2021/11/16 02:52:51;;;;;;;14.73;8.77;;;19.70;42.40;;;;;;4899245;29;20025;-60
2021/11/16 02:55:17;;;;;;;12.48;8.15;;;19.70;42.30;;;;;;4899265;29;20033;-60
2021/11/16 02:57:44;;;;;;;14.45;8.60;;;19.70;42.30;;;;;;4898979;29;20095;-61
2021/11/16 03:00:17;;;;;;;14.18;8.73;;;19.70;42.30;;;;;;4897490;29;20035;-61
2021/11/16 03:02:46;;;;;;;12.95;8.38;;;19.70;42.30;;;;;;4898857;29;20040;-61
2021/11/16 03:05:12;;;;;;;15.00;8.95;;;19.70;42.30;;;;;;4898846;29;20036;-61
2021/11/16 03:07:44;;;;;;;12.05;7.50;;;19.70;42.30;;;;;;4898889;29;20032;-62
2021/11/16 03:10:09;;;;;;;14.38;8.18;;;19.70;42.30;;;;;;4899016;29;20040;-61
2021/11/16 03:12:35;;;;;;;13.07;7.97;;;19.70;42.30;;;;;;4898712;29;20024;-61
2021/11/16 03:15:02;;;;;;;13.52;8.52;;;19.70;42.30;;;;;;4898877;29;20169;-62
2021/11/16 03:17:28;;;;;;;13.85;8.30;;;19.70;42.30;;;;;;4898625;29;20029;-61
2021/11/16 03:19:54;;;;;;;14.20;8.88;;;19.80;42.30;;;;;;4898558;29;20488;-62
2021/11/16 03:22:24;;;;;;;15.07;8.35;;;19.70;42.30;;;;;;4897297;29;20504;-60
2021/11/16 03:24:50;;;;;;;14.98;8.30;;;19.70;42.30;;;;;;4898126;29;20045;-61
2021/11/16 03:27:17;;;;;;;14.13;7.93;;;19.80;42.30;;;;;;4898522;29;20031;-61
2021/11/16 03:29:47;;;;;;;12.90;8.23;;;19.70;42.30;;;;;;4898591;29;20032;-61
2021/11/16 03:32:16;;;;;;;14.00;8.65;;;19.70;42.30;;;;;;4898417;29;20027;-61
2021/11/16 03:34:43;;;;;;;13.60;7.93;;;19.70;42.30;;;;;;4897320;29;20096;-61
2021/11/16 03:37:10;;;;;;;14.25;8.43;;;19.70;42.30;;;;;;4897092;29;20124;-60
2021/11/16 03:39:36;;;;;;;11.85;7.05;;;19.70;42.30;;;;;;4898536;29;20064;-60
2021/11/16 03:42:01;;;;;;;12.43;7.88;;;19.80;42.30;;;;;;4898492;29;20119;-61
2021/11/16 03:44:27;;;;;;;13.65;8.15;;;19.70;42.30;;;;;;4898002;29;20115;-60
2021/11/16 03:46:53;;;;;;;13.15;8.85;;;19.70;42.30;;;;;;4898372;29;20025;-61
2021/11/16 03:49:19;;;;;;;14.38;8.32;;;19.70;42.30;;;;;;4898134;29;20480;-61
2021/11/16 03:51:45;;;;;;;14.25;8.23;;;19.70;42.30;;;;;;4898036;29;20028;-61
2021/11/16 03:54:12;;;;;;;14.80;8.63;;;19.70;42.30;;;;;;4898075;29;20021;-61
2021/11/16 03:56:38;;;;;;;13.45;7.80;;;19.70;42.30;;;;;;4898383;29;20025;-61
2021/11/16 03:59:05;;;;;;;13.73;7.43;;;19.70;42.30;;;;;;4898188;29;20037;-61
2021/11/16 04:01:30;;;;;;;13.65;8.90;;;19.70;42.30;;;;;;4898174;29;20025;-61
2021/11/16 04:03:58;;;;;;;14.30;7.72;;;19.70;42.30;;;;;;4897853;29;20029;-61
2021/11/16 04:06:24;;;;;;;12.85;7.70;;;19.70;42.30;;;;;;4898024;29;20032;-61
2021/11/16 04:08:50;;;;;;;13.32;8.30;;;19.70;42.30;;;;;;4896707;29;20104;-60
2021/11/16 04:11:16;;;;;;;13.40;8.15;;;19.70;42.30;;;;;;4898357;29;20549;-59
2021/11/16 04:13:41;;;;;;;14.65;8.40;;;19.70;42.30;;;;;;4904040;29;20033;-62
2021/11/16 04:16:07;;;;;;;12.80;8.13;;;19.70;42.30;;;;;;4904357;29;20358;-60
2021/11/16 04:18:32;;;;;;;13.90;8.00;;;19.70;42.30;;;;;;4904263;29;20390;-61
2021/11/16 04:20:58;;;;;;;13.05;8.20;;;19.70;42.30;;;;;;4904097;29;20035;-60
2021/11/16 04:23:25;;;;;;;15.52;8.80;;;19.70;42.30;;;;;;4903886;29;20059;-62
2021/11/16 04:25:52;;;;;;;13.52;8.45;;;19.70;42.40;;;;;;4904054;29;20381;-60
2021/11/16 04:28:18;;;;;;;12.40;7.22;;;19.70;42.30;;;;;;4904315;29;20115;-61
2021/11/16 04:30:45;;;;;;;16.88;8.60;;;19.70;42.30;;;;;;4904192;29;20043;-61
2021/11/16 04:33:14;;;;;;;13.88;8.45;;;19.70;42.20;;;;;;4904331;29;20021;-60
2021/11/16 04:35:40;;;;;;;13.75;8.50;;;19.70;42.20;;;;;;4904037;29;20036;-61
2021/11/16 04:38:08;;;;;;;14.27;7.97;;;19.70;42.30;;;;;;4904260;29;20024;-61
2021/11/16 04:40:39;;;;;;;15.18;8.35;;;19.70;42.30;;;;;;4903795;29;20480;-61
2021/11/16 04:43:09;;;;;;;13.70;7.88;;;19.70;42.30;;;;;;4903881;29;20036;-61
2021/11/16 04:45:39;;;;;;;14.65;8.20;;;19.70;42.30;;;;;;4903784;29;20096;-61
2021/11/16 04:48:19;;;;;;;13.70;8.05;;;19.70;42.30;;;;;;4903885;29;20028;-61
2021/11/16 05:04:09;;;;;;;13.68;7.93;;;19.70;42.30;;;;;;4903780;29;20048;-61
2021/11/16 05:06:36;;;;;;;12.60;7.65;;;19.70;42.30;;;;;;4903766;29;20033;-61
2021/11/16 05:09:02;;;;;;;14.77;8.63;;;19.70;42.30;;;;;;4903663;29;20053;-61
2021/11/16 05:11:27;;;;;;;15.10;8.27;;;19.70;42.30;;;;;;4903677;29;20028;-61
2021/11/16 05:13:53;;;;;;;13.15;8.23;;;19.70;42.20;;;;;;4902380;29;20031;-60
2021/11/16 05:16:21;;;;;;;13.65;8.60;;;19.70;42.30;;;;;;4903798;29;20483;-60
2021/11/16 05:18:47;;;;;;;13.02;7.68;;;19.70;42.30;;;;;;4903880;29;20035;-61
2021/11/16 05:21:14;;;;;;;13.65;8.25;;;19.70;42.30;;;;;;4903583;29;20024;-62
2021/11/16 05:23:48;;;;;;;12.18;7.53;;;19.70;42.30;;;;;;4902087;29;20044;-60
2021/11/16 05:26:14;;;;;;;13.98;7.60;;;19.70;42.40;;;;;;4900693;29;20035;-61
2021/11/16 05:28:40;;;;;;;13.50;8.13;;;19.80;42.40;;;;;;4900823;29;20028;-61
2021/11/16 05:31:05;;;;;;;13.25;7.85;;;19.80;42.30;;;;;;4900480;29;20043;-61
2021/11/16 05:33:31;;;;;;;13.95;7.95;;;19.80;42.30;;;;;;4900777;29;20029;-60
2021/11/16 05:36:01;;;;;;;13.80;8.00;;;19.80;42.30;;;;;;4899233;29;20039;-61
2021/11/16 05:38:30;;;;;;;13.18;7.78;;;19.80;42.30;;;;;;4899576;29;20021;-61
2021/11/16 05:40:56;;;;;;;12.57;7.47;;;19.90;42.30;;;;;;4900354;29;20021;-61
2021/11/16 05:43:24;;;;;;;13.10;8.32;;;19.90;42.30;;;;;;4900224;29;20544;-59
2021/11/16 05:45:50;;;;;;;12.40;7.80;;;19.90;42.30;;;;;;4900380;29;20449;-61
2021/11/16 05:48:16;;;;;;;13.60;8.18;;;19.90;42.30;;;;;;4900349;29;20080;-61
2021/11/16 05:50:42;;;;;;;11.30;7.30;;;19.90;42.20;;;;;;4900268;29;20033;-61
2021/11/16 05:53:08;;;;;;;11.75;7.15;;;19.90;42.30;;;;;;4900211;29;20037;-61
2021/11/16 05:55:34;;;;;;;14.60;8.55;;;20.00;42.30;;;;;;4900031;29;20024;-61
2021/11/16 05:58:00;;;;;;;12.80;7.75;;;20.00;42.20;;;;;;4899951;29;20465;-61
2021/11/16 06:00:26;;;;;;;13.70;7.88;;;20.00;42.30;;;;;;4900283;29;20032;-61
2021/11/16 06:02:53;;;;;;;14.15;7.80;;;20.00;42.20;;;;;;4899938;29;20488;-61
2021/11/16 06:05:19;;;;;;;13.13;8.05;;;20.00;42.20;;;;;;4898675;29;20048;-61
2021/11/16 06:07:45;;;;;;;12.70;7.38;;;20.00;42.30;;;;;;4900230;29;20059;-60
2021/11/16 06:10:12;;;;;;;13.50;7.72;;;20.00;42.20;;;;;;4899770;29;20462;-61
2021/11/16 06:12:38;;;;;;;13.30;7.80;;;20.00;42.20;;;;;;4899823;29;20080;-60
2021/11/16 06:15:04;;;;;;;14.95;7.82;;;20.00;42.20;;;;;;4898441;29;20468;-61
2021/11/16 06:17:30;;;;;;;13.05;8.23;;;20.00;42.20;;;;;;4898516;29;20503;-61
2021/11/16 06:19:56;;;;;;;13.27;7.55;;;20.00;42.20;;;;;;4898648;29;20104;-62
2021/11/16 06:22:22;;;;;;;13.02;8.00;;;20.00;42.20;;;;;;4899639;29;20033;-61
2021/11/16 06:24:48;;;;;;;14.45;8.25;;;20.00;42.20;;;;;;4899057;29;20052;-61
2021/11/16 06:27:13;;;;;;;14.88;8.18;;;20.00;42.20;;;;;;4899600;29;20024;-61
2021/11/16 06:29:39;;;;;;;12.77;7.57;;;20.00;42.20;;;;;;4899766;29;20052;-62
2021/11/16 06:32:06;;;;;;;11.75;7.53;;;20.00;42.10;;;;;;4899764;29;20031;-61
2021/11/16 06:34:32;;;;;;;12.88;7.63;;;20.10;42.20;;;;;;4899140;29;20470;-60
2021/11/16 06:36:57;;;;;;;13.05;7.55;;;20.00;42.20;;;;;;4899228;29;20028;-60
2021/11/16 06:39:23;;;;;;;14.27;8.48;;;20.10;42.10;;;;;;4899218;29;20028;-60
2021/11/16 06:41:50;;;;;;;12.18;7.60;;;20.00;42.10;;;;;;4899463;29;20031;-62
2021/11/16 06:44:19;;;;;;;13.27;7.70;;;20.00;42.10;;;;;;4899336;29;20032;-61
2021/11/16 06:46:46;;;;;;;13.23;7.07;;;20.10;42.10;;;;;;4899412;29;20072;-62
2021/11/16 06:49:12;;;;;;;14.35;7.70;;;20.00;42.10;;;;;;4899289;29;20032;-61
2021/11/16 06:51:39;;;;;;;11.73;7.00;;;20.10;42.10;;;;;;4899384;29;20425;-61
2021/11/16 06:54:12;;;;;;;11.82;7.50;;;20.00;42.10;;;;;;4899000;29;20051;-61
2021/11/16 06:56:39;;;;;;;12.63;7.53;;;20.00;42.20;;;;;;4899054;29;20039;-61
2021/11/16 06:59:05;;;;;;;13.75;7.85;;;20.00;42.10;;;;;;4898911;29;20523;-61
2021/11/16 07:01:34;;;;;;;12.77;7.85;;;20.10;42.20;;;;;;4898993;29;20037;-61
2021/11/16 07:04:05;;;;;;;11.90;6.95;;;20.10;42.10;;;;;;4898819;29;20035;-62
2021/11/16 07:06:30;;;;;;;12.82;7.60;;;20.10;42.10;;;;;;4897712;29;20043;-61
2021/11/16 07:08:57;;;;;;;12.90;7.10;;;20.10;42.10;;;;;;4899221;29;20382;-62
2021/11/16 07:11:24;;;;;;;12.73;7.43;;;20.10;42.20;;;;;;4898720;29;20028;-61
2021/11/16 07:14:01;;;;;;;13.43;7.43;;;20.00;42.10;;;;;;4898589;29;20039;-61
2021/11/16 07:16:30;;;;;;;14.77;8.23;;;20.10;42.10;;;;;;4898721;29;20031;-61
2021/11/16 07:18:56;;;;;;;12.95;7.60;;;20.10;42.10;;;;;;4897069;29;20036;-61
2021/11/16 07:21:25;;;;;;;13.00;7.97;;;20.10;42.20;;;;;;4898364;29;20056;-61
2021/11/16 07:24:09;;;;;;;12.68;7.75;;;20.10;42.00;;;;;;4897082;29;20055;-61
2021/11/16 07:26:39;;;;;;;12.48;6.95;;;20.10;42.10;;;;;;4894216;29;20036;-61
2021/11/16 07:29:08;;;;;;;12.27;8.02;;;20.00;42.10;;;;;;4896092;29;20033;-61
2021/11/16 07:31:37;;;;;;;14.15;8.02;;;20.10;42.10;;;;;;4887488;29;20529;-61
2021/11/16 07:34:18;;;;;;;13.05;7.95;;;20.10;42.10;;;;;;4878732;29;20037;-61
2021/11/16 07:37:06;;;;;;;12.55;7.32;;;20.10;42.00;;;;;;4880302;29;20388;-60
2021/11/16 07:39:47;;;;;;;13.68;7.97;;;20.10;42.20;;;;;;4891327;29;20032;-61
2021/11/16 07:42:13;;;;;;;12.73;7.40;;;20.10;42.20;;;;;;4896936;29;20032;-61
2021/11/16 07:44:38;;;;;;;15.45;8.23;;;20.10;42.30;;;;;;4897023;29;20045;-61
2021/11/16 07:47:05;;;;;;;13.27;7.93;;;20.10;42.30;;;;;;4889133;29;20034;-62
2021/11/16 07:49:32;;;;;;;14.02;7.82;;;20.10;42.30;;;;;;4894161;29;20036;-62
2021/11/16 07:51:57;;;;;;;14.13;7.88;;;20.10;42.40;;;;;;4897106;29;20020;-62
2021/11/16 07:54:28;;;;;;;13.02;7.60;;;20.10;42.40;;;;;;4884176;29;20115;-61
2021/11/16 07:57:04;;;;;;;12.65;7.50;;;20.10;42.40;;;;;;4873781;29;20025;-61
2021/11/16 07:59:34;;;;;;;13.88;7.72;;;20.10;42.40;;;;;;4875632;29;20044;-63
2021/11/16 08:02:05;;;;;;;13.48;8.13;;;20.10;42.40;;;;;;4879395;29;20029;-62
2021/11/16 08:04:49;;;;;;;12.95;7.22;;;20.10;42.40;;;;;;4876706;29;20036;-60
2021/11/16 08:07:51;;;;;;;12.77;7.20;;;20.10;42.50;;;;;;4872510;29;20047;-61
2021/11/16 08:10:07;;;;;;;13.25;7.13;;;20.10;42.40;;;;;;4875092;29;20041;-63
2021/11/16 08:12:39;;;;;;;12.68;7.68;;;20.20;42.50;;;;;;4876933;29;20033;-62
2021/11/16 08:15:11;;;;;;;14.32;7.82;;;20.20;42.50;;;;;;4878275;29;20483;-61
2021/11/16 08:17:38;;;;;;;11.50;6.82;;;20.20;42.40;;;;;;4869724;29;20430;-61
2021/11/16 08:20:09;;;;;;;12.77;7.47;;;20.20;42.60;;;;;;4877669;29;20049;-60
2021/11/16 08:22:35;;;;;;;12.43;7.40;;;20.20;42.60;;;;;;4877756;29;20029;-60
2021/11/16 08:25:02;;;;;;;12.90;7.45;;;20.20;42.60;;;;;;4881913;29;20374;-62
2021/11/16 08:27:43;;;;;;;14.20;7.97;;;20.20;42.60;;;;;;4888336;29;20449;-62
2021/11/16 08:30:10;;;;;;;15.93;8.07;;;20.20;42.70;;;;;;4896678;29;20032;-61
2021/11/16 08:32:40;;;;;;;12.48;7.60;;;20.20;42.60;;;;;;4882639;29;20025;-63
2021/11/16 08:35:15;;;;;;;15.55;8.10;;;20.20;42.70;;;;;;4878119;29;20033;-62
2021/11/16 08:37:41;;;;;;;13.68;7.43;;;20.20;42.70;;;;;;4869512;29;20032;-63
2021/11/16 08:40:17;;;;;;;14.38;8.10;;;20.20;42.80;;;;;;4877796;29;20093;-63
2021/11/16 08:42:51;;;;;;;12.93;7.57;;;20.20;42.80;;;;;;4890964;29;20052;-61
2021/11/16 08:45:22;;;;;;;12.30;7.20;;;20.20;42.80;;;;;;4878738;29;20048;-61
2021/11/16 08:48:04;;;;;;;12.45;7.38;;;20.20;42.70;;;;;;4887905;29;20527;-62
2021/11/16 08:50:33;;;;;;;12.73;7.18;;;20.20;42.80;;;;;;4896565;29;20029;-62
2021/11/16 08:53:08;;;;;;;12.88;7.35;;;20.30;42.80;;;;;;4896744;29;20028;-61
2021/11/16 08:55:37;;;;;;;11.82;6.57;;;20.30;42.80;;;;;;4896850;29;20032;-63
2021/11/16 08:58:08;;;;;;;11.43;6.95;;;20.30;42.90;;;;;;4888556;29;20037;-63
2021/11/16 09:00:43;;;;;;;14.20;7.80;;;20.20;42.80;;;;;;4900092;29;20029;-63
2021/11/16 09:03:14;;;;;;;;;;;20.30;42.90;;;;;;4900587;29;20029;-64
2021/11/16 09:05:45;;;;;;;14.27;7.65;;;20.20;42.90;;;;;;4899942;29;19915;-65
2021/11/16 09:08:23;;;;;;;13.85;7.18;;;20.20;42.90;;;;;;4890852;29;20033;-65
2021/11/16 09:10:52;;;;;;;12.80;7.03;;;20.30;42.90;;;;;;4899813;29;20056;-65
2021/11/16 09:13:20;;;;;;;15.10;7.65;;;20.30;42.90;;;;;;4898504;29;20037;-66
2021/11/16 09:15:53;;;;;;;11.80;6.10;;;20.30;42.90;;;;;;4900439;29;20115;-64
2021/11/16 09:18:20;;;;;;;11.40;7.07;;;20.30;43.00;;;;;;4910149;29;20031;-64
2021/11/16 09:21:04;;;;;;;12.65;7.32;;;20.30;43.00;;;;;;4906410;29;20056;-64
2021/11/16 09:23:33;;;;;;;10.97;6.37;;;20.30;43.00;;;;;;4899277;29;20575;-62
2021/11/16 09:26:09;;;;;;;12.48;7.15;;;20.30;43.00;;;;;;4899351;29;20120;-63
2021/11/16 09:28:34;;;;;;;11.70;7.13;;;20.30;42.80;;;;;;4891040;29;20032;-63
2021/11/16 09:31:15;;;;;;;14.13;6.82;;;20.30;42.90;;;;;;4898204;29;20605;-62
2021/11/16 09:33:40;;;;;;;11.10;7.15;;;20.30;43.00;;;;;;4898418;29;20029;-62
2021/11/16 09:36:06;;;;;;;12.85;7.38;;;20.30;43.00;;;;;;4898147;29;20024;-63
2021/11/16 09:38:52;;;;;;;13.13;7.45;;;20.30;43.00;;;;;;4890824;29;20469;-63
2021/11/16 09:41:34;;;;;;;11.70;7.00;;;20.30;42.90;;;;;;4899681;29;20036;-63
2021/11/16 09:44:12;;;;;;;12.23;6.85;;;20.30;43.10;;;;;;4891688;29;20092;-63
2021/11/16 09:46:46;;;;;;;14.57;7.53;;;20.30;43.00;;;;;;4877708;29;20274;-62
2021/11/16 09:49:14;;;;;;;11.32;6.45;;;20.30;43.00;;;;;;4875514;29;20036;-63
2021/11/16 09:51:41;;;;;;;12.77;6.53;;;20.30;43.00;;;;;;4880434;29;20093;-63
2021/11/16 09:54:08;;;;;;;11.00;6.60;;;20.30;43.10;;;;;;4895302;29;20049;-62
2021/11/16 09:56:35;;;;;;;13.48;7.22;;;20.30;43.10;;;;;;4895546;29;20150;-63
2021/11/16 09:59:01;;;;;;;13.95;7.40;;;20.30;43.10;;;;;;4893413;29;20362;-62
2021/11/16 10:01:32;;;;;;;14.02;7.53;;;20.30;43.10;;;;;;4896847;29;20033;-63
2021/11/16 10:04:13;;;;;;;11.90;6.82;;;20.30;43.20;;;;;;4890365;29;20500;-63
2021/11/16 10:06:39;;;;;;;11.32;6.20;;;20.30;43.10;;;;;;4873312;29;20025;-63
2021/11/16 10:09:09;;;;;;;11.77;6.57;;;20.40;43.10;;;;;;4870802;29;20021;-64
2021/11/16 10:11:40;;;;;;;12.52;6.93;;;20.40;43.00;;;;;;4878154;29;20384;-63
2021/11/16 10:14:07;;;;;;;13.18;6.88;;;20.40;43.00;;;;;;4895341;29;20062;-63
2021/11/16 10:16:33;;;;;;;12.35;6.53;;;20.40;43.00;;;;;;4874193;29;20032;-63
2021/11/16 10:18:59;;;;;;;11.88;6.63;;;20.40;43.00;;;;;;4895035;29;20024;-63
2021/11/16 10:21:24;;;;;;;11.55;7.15;;;20.40;43.00;;;;;;4895914;29;20432;-63
2021/11/16 10:23:53;;;;;;;10.57;6.43;;;20.40;43.00;;;;;;4898033;29;20537;-63
2021/11/16 10:26:19;;;;;;;13.20;7.03;;;20.40;43.00;;;;;;4895234;29;20484;-62
2021/11/16 10:28:48;;;;;;;12.00;6.38;;;20.40;43.00;;;;;;4867643;29;20024;-64
2021/11/16 10:31:14;;;;;;;11.00;5.93;;;20.40;43.00;;;;;;4880649;29;20033;-63
2021/11/16 10:33:49;;;;;;;10.15;5.90;;;20.40;43.00;;;;;;4882007;29;20033;-63
2021/11/16 10:36:17;;;;;;;11.73;6.47;;;20.40;43.00;;;;;;4879880;29;20029;-62
2021/11/16 10:38:48;;;;;;;11.25;6.32;;;20.40;43.00;;;;;;4866112;29;20025;-62
2021/11/16 10:41:17;;;;;;;10.98;6.35;;;20.40;43.00;;;;;;4879774;29;20059;-62
2021/11/16 10:43:51;;;;;;;12.65;6.55;;;20.40;43.00;;;;;;4884233;29;20380;-63
2021/11/16 10:46:18;;;;;;;12.18;6.30;;;20.40;43.00;;;;;;4878255;29;20029;-62
2021/11/16 10:48:44;;;;;;;10.95;6.70;;;20.40;43.00;;;;;;4865252;29;20029;-63
2021/11/16 10:51:13;;;;;;;11.38;6.75;;;20.40;43.00;;;;;;4879238;29;20041;-62
2021/11/16 10:53:45;;;;;;;9.80;5.55;;;20.40;43.00;;;;;;4878074;29;20029;-62
2021/11/16 10:56:14;;;;;;;12.00;6.50;;;20.40;43.00;;;;;;4878685;29;20085;-64
2021/11/16 10:58:41;;;;;;;10.48;5.78;;;20.50;43.00;;;;;;4863240;29;20032;-63
2021/11/16 11:01:11;;;;;;;12.55;6.10;;;20.40;43.00;;;;;;4879505;29;20029;-62
2021/11/16 11:03:48;;;;;;;11.77;6.13;;;20.40;43.00;;;;;;4879241;29;20108;-63
2021/11/16 11:06:34;;;;;;;11.10;5.97;;;20.40;43.00;;;;;;4878922;29;20033;-63
2021/11/16 11:09:03;;;;;;;11.73;6.40;;;20.40;43.00;;;;;;4869942;29;20025;-63
2021/11/16 11:11:33;;;;;;;10.40;6.03;;;20.40;43.00;;;;;;4879249;29;20061;-63
2021/11/16 11:14:14;;;;;;;12.43;6.90;;;20.40;43.00;;;;;;4878334;29;20350;-63
2021/11/16 11:16:49;;;;;;;12.43;6.57;;;20.40;43.00;;;;;;4875347;29;20025;-63
2021/11/16 11:19:31;;;;;;;11.30;5.88;;;20.40;43.00;;;;;;4873060;29;20497;-61
2021/11/16 11:22:09;;;;;;;11.40;6.18;;;20.50;43.00;;;;;;4878845;29;20029;-61
2021/11/16 11:24:42;;;;;;;13.85;7.05;;;20.40;43.00;;;;;;4878584;29;20482;-61
2021/11/16 11:27:28;;;;;;;11.82;6.30;;;20.40;43.00;;;;;;4873176;29;20048;-62
2021/11/16 11:29:58;;;;;;;11.55;6.28;;;20.40;43.00;;;;;;4875866;29;20108;-62
2021/11/16 11:32:34;;;;;;;10.52;6.43;;;20.40;43.00;;;;;;4879065;29;20359;-62
2021/11/16 11:35:10;;;;;;;12.30;6.45;;;20.40;43.00;;;;;;4878666;29;20033;-62
2021/11/16 11:37:41;;;;;;;11.70;6.35;;;20.40;43.00;;;;;;4870464;29;20062;-61
2021/11/16 11:40:08;;;;;;;10.95;6.18;;;20.40;42.90;;;;;;4876998;29;20029;-63
2021/11/16 11:42:36;;;;;;;10.15;5.95;;;20.40;43.00;;;;;;4878968;29;20115;-63
2021/11/16 11:45:34;;;;;;;10.95;6.07;;;20.40;43.00;;;;;;4878427;29;20037;-63
2021/11/16 11:48:03;;;;;;;11.52;6.35;;;20.50;43.00;;;;;;4869761;29;20084;-62
2021/11/16 11:50:43;;;;;;;10.50;5.82;;;20.50;43.00;;;;;;4884974;29;20060;-60
2021/11/16 11:53:15;;;;;;;11.32;6.50;;;20.40;43.00;;;;;;4878356;29;20076;-62
2021/11/16 11:55:46;;;;;;;11.73;6.07;;;20.50;42.90;;;;;;4879012;29;20033;-62
2021/11/16 11:58:14;;;;;;;10.05;5.75;;;20.40;42.90;;;;;;4869323;29;20397;-63
2021/11/16 12:00:41;;;;;;;10.27;6.07;;;20.40;43.00;;;;;;4878230;29;20025;-62
2021/11/16 12:03:10;;;;;;;12.68;6.43;;;20.40;42.90;;;;;;4878088;29;20328;-62
2021/11/16 12:05:38;;;;;;;10.52;5.63;;;20.40;42.90;;;;;;4876698;29;20047;-61
2021/11/16 12:08:05;;;;;;;11.18;5.95;;;20.40;43.00;;;;;;4869169;29;20039;-61
2021/11/16 12:10:35;;;;;;;9.75;5.50;;;20.40;43.00;;;;;;4878014;29;20059;-62
2021/11/16 12:13:01;;;;;;;11.00;6.05;;;20.50;42.90;;;;;;4878177;29;20037;-61
2021/11/16 12:15:30;;;;;;;9.23;5.47;;;20.40;43.00;;;;;;4878322;29;20108;-61
2021/11/16 12:17:58;;;;;;;11.43;6.07;;;20.40;43.00;;;;;;4877984;29;20029;-63
2021/11/16 12:20:55;;;;;;;10.55;5.93;;;20.50;42.90;;;;;;4878405;29;20037;-62
2021/11/16 12:23:55;;;;;;;11.32;6.28;;;20.50;43.00;;;;;;4875928;29;20469;-63
2021/11/16 12:26:21;;;;;;;10.10;5.80;;;20.40;43.00;;;;;;4876331;29;20122;-63
2021/11/16 12:28:47;;;;;;;10.48;5.82;;;20.40;42.90;;;;;;4876355;29;20032;-63
2021/11/16 12:31:29;;;;;;;9.80;5.70;;;20.40;43.00;;;;;;4876465;29;20025;-63
2021/11/16 12:33:57;;;;;;;10.90;5.57;;;20.40;43.00;;;;;;4884407;29;20028;-62
2021/11/16 12:36:32;;;;;;;11.40;6.18;;;20.40;43.00;;;;;;4890266;29;20116;-61
2021/11/16 12:39:09;;;;;;;;;;;20.40;43.10;;;;;;4880943;29;20025;-62
2021/11/16 12:41:39;;;;;;;10.30;5.82;;;20.40;43.00;;;;;;4880401;29;20306;-61
2021/11/16 12:44:14;;;;;;;10.77;5.20;;;20.40;43.00;;;;;;4881928;29;20451;-61
2021/11/16 12:46:41;;;;;;;10.75;5.55;;;20.40;43.00;;;;;;4894592;29;20048;-62
2021/11/16 12:49:10;;;;;;;12.48;6.65;;;20.40;43.00;;;;;;4900556;29;20104;-63
2021/11/16 12:51:51;;;;;;;13.70;5.68;;;20.40;43.10;;;;;;4900749;29;20095;-62
2021/11/16 12:54:22;;;;;;;10.27;5.47;;;20.40;43.10;;;;;;4883144;29;20116;-62
2021/11/16 12:56:50;;;;;;;11.05;5.75;;;20.40;43.00;;;;;;4881335;29;20030;-63
2021/11/16 12:59:22;;;;;;;11.07;5.55;;;20.40;43.20;;;;;;4881957;29;20064;-63
2021/11/16 13:01:48;;;;;;;10.10;5.35;;;20.40;43.10;;;;;;4880170;29;20025;-63